createdAt,value
2017-12-26T00:00:53.624Z,0.00
2017-12-26T00:01:53.643Z,0.00
2017-12-26T00:02:53.661Z,0.00
2017-12-26T00:03:53.679Z,0.00
2017-12-26T00:04:53.697Z,0.00
2017-12-26T00:05:53.710Z,0.00
2017-12-26T00:06:53.735Z,0.00
2017-12-26T00:07:53.746Z,0.00
2017-12-26T00:08:53.764Z,0.00
2017-12-26T00:09:53.790Z,0.00
2017-12-26T00:10:53.802Z,0.00
2017-12-26T00:11:53.825Z,0.00
2017-12-26T00:12:53.838Z,0.00
2017-12-26T00:13:53.863Z,0.00
2017-12-26T00:14:53.874Z,0.00
2017-12-26T00:15:53.899Z,0.00
2017-12-26T00:16:53.910Z,0.00
2017-12-26T00:17:53.929Z,0.00
2017-12-26T00:18:53.948Z,0.00
2017-12-26T00:19:53.965Z,0.00
2017-12-26T00:20:53.986Z,0.00
2017-12-26T00:21:54.007Z,0.00
2017-12-26T00:22:54.021Z,0.00
2017-12-26T00:23:54.044Z,0.00
2017-12-26T00:24:54.061Z,0.00
2017-12-26T00:25:54.074Z,0.00
2017-12-26T00:26:54.098Z,0.00
2017-12-26T00:27:54.111Z,0.00
2017-12-26T00:28:54.136Z,0.00
2017-12-26T00:29:54.148Z,0.00
2017-12-26T00:30:54.171Z,0.00
2017-12-26T00:31:54.189Z,0.00
2017-12-26T00:32:54.207Z,0.00
2017-12-26T00:33:54.220Z,0.00
2017-12-26T00:34:54.238Z,0.00
2017-12-26T00:35:54.266Z,0.00
2017-12-26T00:36:54.274Z,0.00
2017-12-26T00:37:54.294Z,0.00
2017-12-26T00:38:54.318Z,0.00
2017-12-26T00:39:54.331Z,0.00
2017-12-26T00:40:54.353Z,0.00
2017-12-26T00:41:54.366Z,0.00
2017-12-26T00:42:54.385Z,0.00
2017-12-26T00:43:54.408Z,0.00
2017-12-26T00:44:54.426Z,0.00
2017-12-26T00:45:54.437Z,0.00
2017-12-26T00:46:54.458Z,0.00
2017-12-26T00:47:54.476Z,0.00
2017-12-26T00:48:54.493Z,0.00
2017-12-26T00:49:54.518Z,0.00
2017-12-26T00:50:54.536Z,0.00
2017-12-26T00:51:54.550Z,0.00
2017-12-26T00:52:54.571Z,0.00
2017-12-26T00:53:54.590Z,0.00
2017-12-26T00:54:54.602Z,0.00
2017-12-26T00:55:54.629Z,0.00
2017-12-26T00:56:54.639Z,0.00
2017-12-26T00:57:54.663Z,0.00
2017-12-26T00:58:54.680Z,0.00
2017-12-26T00:59:54.693Z,0.00
2017-12-26T01:00:54.714Z,0.00
2017-12-26T01:01:54.736Z,0.00
2017-12-26T01:02:54.754Z,0.00
2017-12-26T01:03:54.766Z,0.00
2017-12-26T01:04:54.836Z,0.00
2017-12-26T01:05:54.805Z,0.00
2017-12-26T01:06:54.827Z,0.00
2017-12-26T01:07:54.845Z,0.00
2017-12-26T01:08:54.856Z,0.00
2017-12-26T01:09:54.874Z,0.00
2017-12-26T01:10:54.892Z,0.00
2017-12-26T01:11:54.918Z,0.00
2017-12-26T01:12:54.929Z,0.00
2017-12-26T01:13:54.953Z,0.00
2017-12-26T01:14:54.966Z,0.00
2017-12-26T01:15:54.988Z,0.00
2017-12-26T01:16:55.002Z,0.00
2017-12-26T01:17:55.024Z,0.00
2017-12-26T01:18:55.043Z,0.00
2017-12-26T01:19:55.060Z,0.00
2017-12-26T01:20:55.071Z,0.00
2017-12-26T01:21:55.094Z,0.00
2017-12-26T01:22:55.114Z,0.00
2017-12-26T01:23:55.126Z,0.00
2017-12-26T01:24:55.143Z,0.00
2017-12-26T01:25:55.167Z,0.00
2017-12-26T01:26:55.192Z,0.00
2017-12-26T01:27:55.198Z,0.00
2017-12-26T01:28:55.213Z,0.00
2017-12-26T01:29:55.238Z,0.00
2017-12-26T01:30:55.256Z,0.00
2017-12-26T01:31:55.268Z,0.00
2017-12-26T01:32:55.284Z,0.00
2017-12-26T01:33:55.309Z,0.00
2017-12-26T01:34:55.327Z,0.00
2017-12-26T01:35:55.339Z,0.00
2017-12-26T01:36:55.360Z,0.00
2017-12-26T01:37:55.373Z,0.00
2017-12-26T01:38:55.396Z,0.00
2017-12-26T01:39:55.410Z,0.00
2017-12-26T01:40:55.432Z,0.00
2017-12-26T01:41:55.443Z,0.00
2017-12-26T01:42:55.467Z,0.00
2017-12-26T01:43:55.479Z,0.00
2017-12-26T01:44:55.510Z,0.00
2017-12-26T01:45:55.515Z,0.00
2017-12-26T01:46:55.541Z,0.00
2017-12-26T01:47:55.551Z,0.00
2017-12-26T01:48:55.573Z,0.00
2017-12-26T01:49:55.586Z,0.00
2017-12-26T01:50:55.602Z,0.00
2017-12-26T01:51:55.627Z,0.00
2017-12-26T01:52:55.638Z,0.00
2017-12-26T01:53:55.664Z,0.00
2017-12-26T01:54:55.674Z,0.00
2017-12-26T01:55:55.697Z,0.00
2017-12-26T01:56:55.710Z,0.00
2017-12-26T01:57:55.731Z,0.00
2017-12-26T01:58:55.744Z,0.00
2017-12-26T01:59:55.768Z,0.00
2017-12-26T02:00:55.779Z,0.00
2017-12-26T02:01:55.804Z,0.00
2017-12-26T02:02:55.815Z,0.00
2017-12-26T02:03:55.838Z,0.00
2017-12-26T02:04:55.854Z,0.00
2017-12-26T02:05:55.873Z,0.00
2017-12-26T02:06:55.891Z,0.00
2017-12-26T02:07:55.902Z,0.00
2017-12-26T02:08:55.919Z,0.00
2017-12-26T02:09:55.940Z,0.00
2017-12-26T02:10:55.961Z,0.00
2017-12-26T02:11:55.978Z,0.00
2017-12-26T02:12:55.989Z,0.00
2017-12-26T02:13:56.013Z,0.00
2017-12-26T02:14:56.026Z,0.00
2017-12-26T02:15:56.049Z,0.00
2017-12-26T02:16:56.065Z,0.00
2017-12-26T02:17:56.076Z,0.00
2017-12-26T02:18:56.096Z,0.00
2017-12-26T02:19:56.118Z,0.00
2017-12-26T02:20:56.136Z,0.00
2017-12-26T02:21:56.148Z,0.00
2017-12-26T02:22:56.166Z,0.00
2017-12-26T02:23:56.190Z,0.00
2017-12-26T02:24:56.212Z,0.00
2017-12-26T02:25:56.225Z,0.00
2017-12-26T02:26:56.237Z,0.00
2017-12-26T02:27:56.254Z,0.00
2017-12-26T02:28:56.277Z,0.00
2017-12-26T02:29:56.288Z,0.00
2017-12-26T02:30:56.312Z,0.00
2017-12-26T02:31:56.324Z,0.00
2017-12-26T02:32:56.346Z,0.00
2017-12-26T02:33:56.359Z,0.00
2017-12-26T02:34:56.383Z,0.00
2017-12-26T02:35:56.394Z,0.00
2017-12-26T02:36:56.417Z,0.00
2017-12-26T02:37:56.429Z,0.00
2017-12-26T02:38:56.454Z,0.00
2017-12-26T02:39:56.471Z,0.00
2017-12-26T02:40:56.487Z,0.00
2017-12-26T02:41:56.504Z,0.00
2017-12-26T02:42:56.516Z,0.00
2017-12-26T02:43:56.539Z,0.00
2017-12-26T02:44:56.557Z,0.00
2017-12-26T02:45:56.571Z,0.00
2017-12-26T02:46:56.587Z,0.00
2017-12-26T02:47:56.610Z,0.00
2017-12-26T02:48:56.623Z,0.00
2017-12-26T02:49:56.648Z,0.00
2017-12-26T02:50:56.655Z,0.00
2017-12-26T02:51:56.679Z,0.00
2017-12-26T02:52:56.692Z,0.00
2017-12-26T02:53:56.715Z,0.00
2017-12-26T02:54:56.727Z,0.00
2017-12-26T02:55:56.750Z,0.00
2017-12-26T02:56:56.761Z,0.00
2017-12-26T02:57:56.778Z,0.00
2017-12-26T02:58:56.798Z,0.00
2017-12-26T02:59:56.814Z,0.00
2017-12-26T03:00:56.831Z,0.00
2017-12-26T03:01:56.853Z,0.00
2017-12-26T03:02:56.866Z,0.00
2017-12-26T03:03:56.895Z,0.00
2017-12-26T03:04:56.907Z,0.00
2017-12-26T03:05:56.920Z,0.00
2017-12-26T03:06:56.935Z,0.00
2017-12-26T03:07:56.959Z,0.00
2017-12-26T03:08:56.977Z,0.00
2017-12-26T03:09:56.989Z,0.00
2017-12-26T03:10:57.012Z,0.00
2017-12-26T03:11:57.024Z,0.00
2017-12-26T03:12:57.041Z,0.00
2017-12-26T03:13:57.058Z,0.00
2017-12-26T03:14:57.081Z,0.00
2017-12-26T03:15:57.101Z,0.00
2017-12-26T03:16:57.111Z,0.00
2017-12-26T03:17:57.134Z,0.00
2017-12-26T03:18:57.151Z,0.00
2017-12-26T03:19:57.165Z,0.00
2017-12-26T03:20:57.182Z,0.00
2017-12-26T03:21:57.203Z,0.00
2017-12-26T03:22:57.222Z,0.00
2017-12-26T03:23:57.233Z,0.00
2017-12-26T03:24:57.249Z,0.00
2017-12-26T03:25:57.274Z,0.00
2017-12-26T03:26:57.286Z,0.00
2017-12-26T03:27:57.309Z,0.00
2017-12-26T03:28:57.326Z,0.00
2017-12-26T03:29:57.344Z,0.00
2017-12-26T03:30:57.357Z,0.00
2017-12-26T03:31:57.374Z,0.00
2017-12-26T03:32:57.396Z,0.00
2017-12-26T03:33:57.409Z,0.00
2017-12-26T03:34:57.427Z,0.00
2017-12-26T03:35:57.448Z,0.00
2017-12-26T03:36:57.467Z,0.00
2017-12-26T03:37:57.479Z,0.00
2017-12-26T03:38:57.495Z,0.00
2017-12-26T03:39:57.520Z,0.00
2017-12-26T03:40:57.536Z,0.00
2017-12-26T03:41:57.548Z,0.00
2017-12-26T03:42:57.572Z,0.00
2017-12-26T03:43:57.590Z,0.00
2017-12-26T03:44:57.606Z,0.00
2017-12-26T03:45:57.624Z,0.00
2017-12-26T03:46:57.635Z,0.00
2017-12-26T03:47:57.659Z,0.00
2017-12-26T03:48:57.677Z,0.00
2017-12-26T03:49:57.690Z,0.00
2017-12-26T03:50:57.713Z,0.00
2017-12-26T03:51:57.725Z,0.00
2017-12-26T03:52:57.748Z,0.00
2017-12-26T03:53:57.759Z,0.00
2017-12-26T03:54:57.783Z,0.00
2017-12-26T03:55:57.796Z,0.00
2017-12-26T03:56:57.819Z,0.00
2017-12-26T03:57:57.832Z,0.00
2017-12-26T03:58:57.848Z,0.00
2017-12-26T03:59:57.867Z,0.00
2017-12-26T04:00:57.882Z,0.00
2017-12-26T04:01:57.903Z,0.00
2017-12-26T04:02:57.929Z,0.00
2017-12-26T04:03:57.937Z,0.00
2017-12-26T04:04:57.955Z,0.00
2017-12-26T04:05:57.978Z,0.00
2017-12-26T04:06:57.992Z,0.00
2017-12-26T04:07:58.015Z,0.00
2017-12-26T04:08:58.028Z,0.00
2017-12-26T04:09:58.056Z,0.00
2017-12-26T04:10:58.063Z,0.00
2017-12-26T04:11:58.087Z,0.00
2017-12-26T04:12:58.098Z,0.00
2017-12-26T04:13:58.122Z,0.00
2017-12-26T04:14:58.140Z,0.00
2017-12-26T04:15:58.153Z,0.00
2017-12-26T04:16:58.175Z,0.00
2017-12-26T04:17:58.188Z,0.00
2017-12-26T04:18:58.213Z,0.00
2017-12-26T04:19:58.224Z,0.00
2017-12-26T04:20:58.249Z,0.00
2017-12-26T04:21:58.261Z,0.00
2017-12-26T04:22:58.285Z,0.00
2017-12-26T04:23:58.297Z,0.00
2017-12-26T04:24:58.321Z,0.00
2017-12-26T04:25:58.336Z,0.00
2017-12-26T04:26:58.359Z,0.00
2017-12-26T04:27:58.370Z,0.00
2017-12-26T04:28:58.394Z,0.00
2017-12-26T04:29:58.408Z,0.00
2017-12-26T04:30:58.424Z,0.00
2017-12-26T04:31:58.449Z,0.00
2017-12-26T04:32:58.461Z,0.00
2017-12-26T04:33:58.485Z,0.00
2017-12-26T04:34:58.501Z,0.00
2017-12-26T04:35:58.521Z,0.00
2017-12-26T04:36:58.534Z,0.00
2017-12-26T04:37:58.564Z,0.00
2017-12-26T04:38:58.571Z,0.00
2017-12-26T04:39:58.603Z,0.00
2017-12-26T04:40:58.607Z,0.00
2017-12-26T04:41:58.630Z,0.00
2017-12-26T04:42:58.643Z,0.00
2017-12-26T04:43:58.668Z,0.00
2017-12-26T04:44:58.681Z,0.00
2017-12-26T04:45:58.703Z,0.00
2017-12-26T04:46:58.717Z,0.00
2017-12-26T04:47:58.741Z,0.00
2017-12-26T04:48:58.759Z,0.00
2017-12-26T04:49:58.772Z,0.00
2017-12-26T04:50:58.790Z,0.00
2017-12-26T04:51:58.814Z,0.00
2017-12-26T04:52:58.833Z,0.00
2017-12-26T04:53:58.845Z,0.00
2017-12-26T04:54:58.863Z,0.00
2017-12-26T04:55:58.888Z,0.00
2017-12-26T04:56:58.907Z,0.00
2017-12-26T04:57:58.920Z,0.00
2017-12-26T04:58:58.939Z,0.00
2017-12-26T04:59:58.963Z,0.00
2017-12-26T05:00:58.983Z,0.00
2017-12-26T05:01:58.995Z,0.00
2017-12-26T05:02:59.018Z,0.00
2017-12-26T05:03:59.031Z,0.00
2017-12-26T05:04:59.049Z,0.00
2017-12-26T05:05:59.074Z,0.00
2017-12-26T05:06:59.093Z,0.00
2017-12-26T05:07:59.109Z,0.00
2017-12-26T05:08:59.124Z,0.00
2017-12-26T05:09:59.147Z,0.00
2017-12-26T05:10:59.168Z,0.00
2017-12-26T05:11:59.181Z,0.00
2017-12-26T05:12:59.197Z,0.00
2017-12-26T05:13:59.222Z,0.00
2017-12-26T05:14:59.242Z,0.00
2017-12-26T05:15:59.254Z,0.00
2017-12-26T05:16:59.273Z,0.00
2017-12-26T05:17:59.297Z,0.00
2017-12-26T05:18:59.317Z,0.00
2017-12-26T05:19:59.329Z,0.00
2017-12-26T05:20:59.352Z,0.00
2017-12-26T05:21:59.366Z,0.00
2017-12-26T05:22:59.391Z,0.00
2017-12-26T05:23:59.404Z,0.00
2017-12-26T05:24:59.427Z,0.00
2017-12-26T05:25:59.441Z,0.00
2017-12-26T05:26:59.460Z,0.00
2017-12-26T05:27:59.485Z,0.00
2017-12-26T05:28:59.503Z,0.00
2017-12-26T05:29:59.522Z,0.00
2017-12-26T05:30:59.535Z,0.00
2017-12-26T05:31:59.560Z,0.00
2017-12-26T05:32:59.575Z,0.00
2017-12-26T05:33:59.600Z,0.00
2017-12-26T05:34:59.610Z,0.00
2017-12-26T05:35:59.636Z,0.00
2017-12-26T05:36:59.648Z,0.00
2017-12-26T05:37:59.670Z,0.00
2017-12-26T05:38:59.687Z,0.00
2017-12-26T05:39:59.711Z,0.00
2017-12-26T05:40:59.722Z,0.00
2017-12-26T05:41:59.749Z,0.00
2017-12-26T05:42:59.767Z,0.00
2017-12-26T05:43:59.779Z,0.00
2017-12-26T05:44:59.797Z,0.00
2017-12-26T05:45:59.822Z,0.00
2017-12-26T05:46:59.841Z,0.00
2017-12-26T05:47:59.855Z,0.00
2017-12-26T05:48:59.874Z,0.00
2017-12-26T05:49:59.898Z,0.00
2017-12-26T05:50:59.910Z,0.00
2017-12-26T05:51:59.936Z,0.00
2017-12-26T05:52:59.957Z,0.00
2017-12-26T05:53:59.967Z,0.00
2017-12-26T05:54:59.988Z,0.00
2017-12-26T05:56:00.017Z,0.00
2017-12-26T05:57:00.031Z,0.00
2017-12-26T05:58:00.044Z,0.00
2017-12-26T05:59:00.070Z,0.00
2017-12-26T06:00:00.094Z,0.00
2017-12-26T06:01:00.101Z,0.00
2017-12-26T06:02:00.125Z,0.00
2017-12-26T06:03:00.144Z,0.00
2017-12-26T06:04:00.159Z,0.00
2017-12-26T06:05:00.176Z,0.00
2017-12-26T06:06:00.201Z,0.00
2017-12-26T06:07:00.222Z,0.00
2017-12-26T06:08:00.235Z,0.00
2017-12-26T06:09:00.254Z,0.00
2017-12-26T06:10:00.276Z,0.00
2017-12-26T06:11:00.297Z,0.00
2017-12-26T06:12:00.310Z,0.00
2017-12-26T06:13:00.330Z,0.00
2017-12-26T06:14:00.354Z,0.00
2017-12-26T06:15:00.373Z,0.00
2017-12-26T06:16:00.386Z,0.00
2017-12-26T06:17:00.412Z,0.00
2017-12-26T06:18:00.424Z,0.00
2017-12-26T06:19:00.450Z,0.00
2017-12-26T06:20:00.464Z,0.00
2017-12-26T06:21:00.488Z,0.00
2017-12-26T06:22:00.500Z,0.00
2017-12-26T06:23:00.526Z,0.00
2017-12-26T06:24:00.540Z,0.00
2017-12-26T06:25:00.566Z,0.00
2017-12-26T06:26:00.584Z,0.00
2017-12-26T06:27:00.602Z,0.00
2017-12-26T06:28:00.623Z,0.00
2017-12-26T06:29:00.642Z,0.00
2017-12-26T06:30:00.654Z,0.00
2017-12-26T06:31:00.680Z,0.00
2017-12-26T06:32:00.743Z,0.00
2017-12-26T06:33:00.725Z,0.00
2017-12-26T06:34:00.733Z,0.00
2017-12-26T06:35:00.758Z,0.00
2017-12-26T06:36:00.771Z,0.00
2017-12-26T06:37:00.799Z,0.00
2017-12-26T06:38:00.810Z,0.00
2017-12-26T06:39:00.832Z,0.00
2017-12-26T06:40:00.855Z,0.00
2017-12-26T06:41:00.870Z,0.00
2017-12-26T06:42:00.886Z,0.00
2017-12-26T06:43:00.906Z,0.00
2017-12-26T06:44:00.925Z,0.00
2017-12-26T06:45:00.944Z,0.00
2017-12-26T06:46:00.972Z,0.00
2017-12-26T06:47:00.983Z,0.00
2017-12-26T06:48:01.009Z,0.00
2017-12-26T06:49:01.023Z,0.00
2017-12-26T06:50:01.046Z,0.00
2017-12-26T06:51:01.062Z,0.00
2017-12-26T06:52:01.088Z,0.00
2017-12-26T06:53:01.098Z,0.00
2017-12-26T06:54:01.126Z,0.00
2017-12-26T06:55:01.144Z,0.00
2017-12-26T06:56:01.164Z,0.00
2017-12-26T06:57:01.177Z,0.00
2017-12-26T06:58:01.197Z,0.00
2017-12-26T06:59:01.217Z,0.00
2017-12-26T07:00:01.243Z,0.00
2017-12-26T07:01:01.254Z,0.00
2017-12-26T07:02:01.279Z,0.00
2017-12-26T07:03:01.299Z,0.00
2017-12-26T07:04:01.313Z,0.00
2017-12-26T07:05:01.332Z,0.00
2017-12-26T07:06:01.358Z,0.00
2017-12-26T07:07:01.376Z,0.00
2017-12-26T07:08:01.392Z,0.00
2017-12-26T07:09:01.410Z,0.00
2017-12-26T07:10:01.434Z,0.00
2017-12-26T07:11:01.449Z,0.00
2017-12-26T07:12:01.467Z,0.00
2017-12-26T07:13:01.491Z,0.00
2017-12-26T07:14:01.511Z,0.00
2017-12-26T07:15:01.531Z,0.00
2017-12-26T07:16:01.544Z,0.00
2017-12-26T07:17:01.569Z,0.00
2017-12-26T07:18:01.583Z,0.00
2017-12-26T07:19:01.610Z,0.00
2017-12-26T07:20:01.627Z,0.00
2017-12-26T07:21:01.645Z,0.00
2017-12-26T07:22:01.660Z,0.00
2017-12-26T07:23:01.679Z,0.00
2017-12-26T07:24:01.704Z,0.00
2017-12-26T07:25:01.721Z,0.00
2017-12-26T07:26:01.735Z,0.00
2017-12-26T07:27:01.765Z,0.00
2017-12-26T07:28:01.775Z,0.00
2017-12-26T07:29:01.800Z,0.00
2017-12-26T07:30:01.820Z,0.00
2017-12-26T07:31:01.842Z,0.00
2017-12-26T07:32:01.857Z,0.00
2017-12-26T07:33:01.875Z,0.00
2017-12-26T07:34:01.890Z,0.00
2017-12-26T07:35:01.911Z,0.00
2017-12-26T07:36:01.934Z,0.00
2017-12-26T07:37:01.947Z,0.00
2017-12-26T07:38:01.971Z,0.00
2017-12-26T07:39:01.985Z,0.00
2017-12-26T07:40:02.011Z,0.00
2017-12-26T07:41:02.023Z,0.00
2017-12-26T07:42:02.048Z,0.00
2017-12-26T07:43:02.061Z,0.00
2017-12-26T07:44:02.086Z,0.00
2017-12-26T07:45:02.099Z,0.00
2017-12-26T07:46:02.119Z,0.00
2017-12-26T07:47:02.137Z,0.00
2017-12-26T07:48:02.158Z,0.00
2017-12-26T07:49:02.174Z,0.00
2017-12-26T07:50:02.201Z,0.00
2017-12-26T07:51:02.214Z,0.00
2017-12-26T07:52:02.239Z,0.00
2017-12-26T07:53:02.256Z,0.00
2017-12-26T07:54:02.271Z,0.00
2017-12-26T07:55:02.291Z,0.00
2017-12-26T07:56:02.314Z,0.00
2017-12-26T07:57:02.333Z,0.00
2017-12-26T07:58:02.346Z,5.63
2017-12-26T07:59:02.371Z,0.00
2017-12-26T08:00:02.385Z,0.00
2017-12-26T08:01:02.403Z,0.00
2017-12-26T08:02:02.423Z,0.00
2017-12-26T08:03:02.447Z,0.00
2017-12-26T08:04:02.467Z,0.00
2017-12-26T08:05:02.480Z,0.00
2017-12-26T08:06:02.504Z,0.00
2017-12-26T08:07:02.519Z,0.00
2017-12-26T08:08:02.542Z,0.00
2017-12-26T08:09:02.560Z,0.00
2017-12-26T08:10:02.575Z,0.00
2017-12-26T08:11:02.592Z,0.00
2017-12-26T08:12:02.618Z,0.00
2017-12-26T08:13:02.636Z,0.00
2017-12-26T08:14:02.648Z,0.00
2017-12-26T08:15:02.668Z,0.00
2017-12-26T08:16:02.693Z,0.00
2017-12-26T08:17:02.711Z,0.00
2017-12-26T08:18:02.734Z,0.00
2017-12-26T08:19:02.743Z,0.00
2017-12-26T08:20:02.763Z,0.00
2017-12-26T08:21:02.785Z,0.00
2017-12-26T08:22:02.800Z,0.00
2017-12-26T08:23:02.824Z,0.00
2017-12-26T08:24:02.837Z,0.00
2017-12-26T08:25:02.864Z,0.00
2017-12-26T08:26:02.876Z,0.00
2017-12-26T08:27:02.899Z,0.00
2017-12-26T08:28:02.915Z,0.00
2017-12-26T08:29:02.937Z,0.00
2017-12-26T08:30:02.952Z,0.00
2017-12-26T08:31:02.971Z,0.00
2017-12-26T08:32:02.994Z,0.00
2017-12-26T08:33:03.013Z,5.63
2017-12-26T08:34:03.025Z,5.63
2017-12-26T08:35:03.050Z,5.63
2017-12-26T08:36:03.065Z,5.63
2017-12-26T08:37:03.087Z,5.63
2017-12-26T08:38:03.099Z,5.63
2017-12-26T08:39:03.128Z,5.63
2017-12-26T08:40:03.138Z,5.63
2017-12-26T08:41:03.156Z,5.63
2017-12-26T08:42:03.185Z,5.63
2017-12-26T08:43:03.200Z,5.63
2017-12-26T08:44:03.214Z,5.63
2017-12-26T08:45:03.238Z,5.63
2017-12-26T08:46:03.256Z,5.63
2017-12-26T08:47:03.268Z,5.63
2017-12-26T08:48:03.293Z,5.63
2017-12-26T08:49:03.307Z,5.63
2017-12-26T08:50:03.331Z,5.63
2017-12-26T08:51:03.351Z,5.63
2017-12-26T08:52:03.367Z,5.63
2017-12-26T08:53:03.380Z,11.25
2017-12-26T08:54:03.405Z,11.25
2017-12-26T08:55:03.420Z,5.63
2017-12-26T08:56:03.444Z,11.25
2017-12-26T08:57:03.462Z,11.25
2017-12-26T08:58:03.475Z,11.25
2017-12-26T08:59:03.493Z,11.25
2017-12-26T09:00:03.519Z,16.88
2017-12-26T09:01:03.536Z,16.88
2017-12-26T09:02:03.550Z,22.50
2017-12-26T09:03:03.568Z,22.50
2017-12-26T09:04:03.594Z,28.13
2017-12-26T09:05:03.606Z,28.13
2017-12-26T09:06:03.630Z,33.75
2017-12-26T09:07:03.649Z,33.75
2017-12-26T09:08:03.666Z,39.38
2017-12-26T09:09:03.680Z,39.38
2017-12-26T09:10:03.705Z,45.00
2017-12-26T09:11:03.719Z,45.00
2017-12-26T09:12:03.742Z,45.00
2017-12-26T09:13:03.755Z,39.38
2017-12-26T09:14:03.779Z,39.38
2017-12-26T09:15:03.794Z,39.38
2017-12-26T09:16:03.822Z,33.75
2017-12-26T09:17:03.830Z,33.75
2017-12-26T09:18:03.854Z,28.13
2017-12-26T09:19:03.875Z,39.38
2017-12-26T09:20:03.887Z,39.38
2017-12-26T09:21:03.904Z,45.00
2017-12-26T09:22:03.929Z,45.00
2017-12-26T09:23:03.942Z,45.00
2017-12-26T09:24:03.969Z,45.00
2017-12-26T09:25:03.979Z,45.00
2017-12-26T09:26:04.003Z,39.38
2017-12-26T09:27:04.024Z,39.38
2017-12-26T09:28:04.035Z,45.00
2017-12-26T09:29:04.061Z,39.38
2017-12-26T09:30:04.072Z,61.88
2017-12-26T09:31:04.097Z,61.88
2017-12-26T09:32:04.119Z,61.88
2017-12-26T09:33:04.134Z,56.25
2017-12-26T09:34:04.148Z,61.88
2017-12-26T09:35:04.171Z,61.88
2017-12-26T09:36:04.185Z,56.25
2017-12-26T09:37:04.204Z,67.50
2017-12-26T09:38:04.229Z,67.50
2017-12-26T09:39:04.247Z,73.13
2017-12-26T09:40:04.264Z,73.13
2017-12-26T09:41:04.284Z,78.75
2017-12-26T09:42:04.303Z,90.00
2017-12-26T09:43:04.322Z,84.38
2017-12-26T09:44:04.335Z,90.00
2017-12-26T09:45:04.353Z,90.00
2017-12-26T09:46:04.377Z,67.50
2017-12-26T09:47:04.396Z,78.75
2017-12-26T09:48:04.409Z,90.00
2017-12-26T09:49:04.428Z,84.38
2017-12-26T09:50:04.453Z,78.75
2017-12-26T09:51:04.469Z,73.13
2017-12-26T09:52:04.490Z,50.63
2017-12-26T09:53:04.508Z,56.25
2017-12-26T09:54:04.523Z,67.50
2017-12-26T09:55:04.541Z,123.75
2017-12-26T09:56:04.565Z,146.25
2017-12-26T09:57:04.584Z,118.13
2017-12-26T09:58:04.597Z,112.50
2017-12-26T09:59:04.616Z,106.88
2017-12-26T10:00:04.641Z,123.75
2017-12-26T10:01:04.659Z,106.88
2017-12-26T10:02:04.673Z,129.38
2017-12-26T10:03:04.693Z,84.38
2017-12-26T10:04:04.717Z,56.25
2017-12-26T10:05:04.736Z,39.38
2017-12-26T10:06:04.749Z,45.00
2017-12-26T10:07:04.770Z,50.63
2017-12-26T10:08:04.792Z,61.88
2017-12-26T10:09:04.807Z,61.88
2017-12-26T10:10:04.831Z,50.63
2017-12-26T10:11:04.844Z,33.75
2017-12-26T10:12:04.885Z,39.38
2017-12-26T10:13:04.882Z,39.38
2017-12-26T10:14:04.906Z,45.00
2017-12-26T10:15:04.920Z,50.63
2017-12-26T10:16:04.944Z,50.63
2017-12-26T10:17:04.957Z,45.00
2017-12-26T10:18:04.981Z,50.63
2017-12-26T10:19:04.996Z,45.00
2017-12-26T10:20:05.020Z,45.00
2017-12-26T10:21:05.033Z,50.63
2017-12-26T10:22:05.058Z,61.88
2017-12-26T10:23:05.076Z,73.13
2017-12-26T10:24:05.090Z,106.88
2017-12-26T10:25:05.114Z,129.38
2017-12-26T10:26:05.127Z,135.00
2017-12-26T10:27:05.153Z,140.63
2017-12-26T10:28:05.166Z,174.38
2017-12-26T10:29:05.189Z,151.88
2017-12-26T10:30:05.205Z,151.88
2017-12-26T10:31:05.228Z,140.63
2017-12-26T10:32:05.243Z,140.63
2017-12-26T10:33:05.265Z,140.63
2017-12-26T10:34:05.280Z,146.25
2017-12-26T10:35:05.305Z,163.13
2017-12-26T10:36:05.318Z,168.75
2017-12-26T10:37:05.342Z,163.13
2017-12-26T10:38:05.357Z,208.13
2017-12-26T10:39:05.374Z,247.50
2017-12-26T10:40:05.399Z,253.13
2017-12-26T10:41:05.419Z,253.13
2017-12-26T10:42:05.437Z,247.50
2017-12-26T10:43:05.460Z,253.13
2017-12-26T10:44:05.476Z,230.63
2017-12-26T10:45:05.489Z,230.63
2017-12-26T10:46:05.515Z,236.25
2017-12-26T10:47:05.541Z,208.13
2017-12-26T10:48:05.548Z,225.00
2017-12-26T10:49:05.567Z,230.63
2017-12-26T10:50:05.593Z,196.88
2017-12-26T10:51:05.612Z,180.00
2017-12-26T10:52:05.626Z,196.88
2017-12-26T10:53:05.647Z,202.50
2017-12-26T10:54:05.672Z,191.25
2017-12-26T10:55:05.690Z,185.63
2017-12-26T10:56:05.704Z,185.63
2017-12-26T10:57:05.726Z,163.13
2017-12-26T10:58:05.746Z,146.25
2017-12-26T10:59:05.814Z,129.38
2017-12-26T11:00:05.780Z,123.75
2017-12-26T11:01:05.800Z,135.00
2017-12-26T11:02:05.825Z,151.88
2017-12-26T11:03:05.840Z,140.63
2017-12-26T11:04:05.864Z,140.63
2017-12-26T11:05:05.885Z,151.88
2017-12-26T11:06:05.898Z,163.13
2017-12-26T11:07:05.918Z,180.00
2017-12-26T11:08:05.946Z,168.75
2017-12-26T11:09:05.968Z,146.25
2017-12-26T11:10:05.975Z,151.88
2017-12-26T11:11:06.002Z,129.38
2017-12-26T11:12:06.014Z,118.13
2017-12-26T11:13:06.040Z,151.88
2017-12-26T11:14:06.060Z,151.88
2017-12-26T11:15:06.075Z,180.00
2017-12-26T11:16:06.094Z,185.63
2017-12-26T11:17:06.117Z,191.25
2017-12-26T11:18:06.132Z,185.63
2017-12-26T11:19:06.158Z,146.25
2017-12-26T11:20:06.171Z,180.00
2017-12-26T11:21:06.193Z,168.75
2017-12-26T11:22:06.212Z,123.75
2017-12-26T11:23:06.235Z,95.63
2017-12-26T11:24:06.248Z,112.50
2017-12-26T11:25:06.273Z,118.13
2017-12-26T11:26:06.288Z,146.25
2017-12-26T11:27:06.311Z,146.25
2017-12-26T11:28:06.328Z,129.38
2017-12-26T11:29:06.346Z,123.75
2017-12-26T11:30:06.366Z,112.50
2017-12-26T11:31:06.384Z,112.50
2017-12-26T11:32:06.405Z,95.63
2017-12-26T11:33:06.423Z,90.00
2017-12-26T11:34:06.447Z,101.25
2017-12-26T11:35:06.462Z,106.88
2017-12-26T11:36:06.487Z,135.00
2017-12-26T11:37:06.499Z,174.38
2017-12-26T11:38:06.526Z,168.75
2017-12-26T11:39:06.539Z,191.25
2017-12-26T11:40:06.564Z,191.25
2017-12-26T11:41:06.578Z,213.75
2017-12-26T11:42:06.602Z,208.13
2017-12-26T11:43:06.617Z,191.25
2017-12-26T11:44:06.641Z,146.25
2017-12-26T11:45:06.666Z,168.75
2017-12-26T11:46:06.680Z,191.25
2017-12-26T11:47:06.695Z,225.00
2017-12-26T11:48:06.715Z,225.00
2017-12-26T11:49:06.740Z,264.38
2017-12-26T11:50:06.755Z,247.50
2017-12-26T11:51:06.778Z,236.25
2017-12-26T11:52:06.792Z,286.88
2017-12-26T11:53:06.811Z,292.50
2017-12-26T11:54:06.836Z,281.25
2017-12-26T11:55:06.856Z,213.75
2017-12-26T11:56:06.870Z,258.75
2017-12-26T11:57:06.888Z,264.38
2017-12-26T11:58:06.914Z,275.63
2017-12-26T11:59:06.933Z,292.50
2017-12-26T12:00:06.949Z,286.88
2017-12-26T12:01:06.967Z,202.50
2017-12-26T12:02:06.988Z,174.38
2017-12-26T12:03:07.012Z,185.63
2017-12-26T12:04:07.032Z,168.75
2017-12-26T12:05:07.045Z,146.25
2017-12-26T12:06:07.070Z,112.50
2017-12-26T12:07:07.086Z,95.63
2017-12-26T12:08:07.110Z,84.38
2017-12-26T12:09:07.129Z,73.13
2017-12-26T12:10:07.145Z,67.50
2017-12-26T12:11:07.163Z,101.25
2017-12-26T12:12:07.190Z,84.38
2017-12-26T12:13:07.208Z,90.00
2017-12-26T12:14:07.224Z,112.50
2017-12-26T12:15:07.243Z,101.25
2017-12-26T12:16:07.262Z,90.00
2017-12-26T12:17:07.286Z,118.13
2017-12-26T12:18:07.301Z,180.00
2017-12-26T12:19:07.326Z,129.38
2017-12-26T12:20:07.340Z,129.38
2017-12-26T12:21:07.360Z,129.38
2017-12-26T12:22:07.380Z,140.63
2017-12-26T12:23:07.404Z,540.00
2017-12-26T12:24:07.420Z,213.75
2017-12-26T12:25:07.445Z,821.25
2017-12-26T12:26:07.459Z,168.75
2017-12-26T12:27:07.484Z,241.88
2017-12-26T12:28:07.497Z,180.00
2017-12-26T12:29:07.522Z,129.38
2017-12-26T12:30:07.537Z,118.13
2017-12-26T12:31:07.563Z,146.25
2017-12-26T12:32:07.586Z,1096.88
2017-12-26T12:33:07.602Z,641.25
2017-12-26T12:34:07.621Z,140.63
2017-12-26T12:35:07.637Z,129.38
2017-12-26T12:36:07.662Z,118.13
2017-12-26T12:37:07.681Z,112.50
2017-12-26T12:38:07.697Z,106.88
2017-12-26T12:39:07.717Z,106.88
2017-12-26T12:40:07.741Z,84.38
2017-12-26T12:41:07.756Z,73.13
2017-12-26T12:42:07.781Z,61.88
2017-12-26T12:43:07.795Z,50.63
2017-12-26T12:44:07.822Z,56.25
2017-12-26T12:45:07.836Z,56.25
2017-12-26T12:46:07.861Z,50.63
2017-12-26T12:47:07.878Z,45.00
2017-12-26T12:48:07.901Z,39.38
2017-12-26T12:49:07.915Z,39.38
2017-12-26T12:50:07.948Z,56.25
2017-12-26T12:51:07.955Z,118.13
2017-12-26T12:52:07.980Z,247.50
2017-12-26T12:53:07.994Z,202.50
2017-12-26T12:54:08.019Z,365.63
2017-12-26T12:55:08.035Z,140.63
2017-12-26T12:56:08.060Z,90.00
2017-12-26T12:57:08.073Z,84.38
2017-12-26T12:58:08.097Z,73.13
2017-12-26T12:59:08.111Z,67.50
2017-12-26T13:00:08.138Z,61.88
2017-12-26T13:01:08.150Z,56.25
2017-12-26T13:02:08.176Z,45.00
2017-12-26T13:03:08.197Z,39.38
2017-12-26T13:04:08.211Z,33.75
2017-12-26T13:05:08.235Z,28.13
2017-12-26T13:06:08.248Z,28.13